sensor_id;sensor_type;location;lat;lon;timestamp;P1;durP1;ratioP1;P2;durP2;ratioP2
62863;SDS011;48954;59.950;11.014;2023-02-28T06:07:04;6.80;;;2.10;;
62863;SDS011;48954;59.950;11.014;2023-02-28T06:18:38;6.70;;;2.50;;
62863;SDS011;48954;59.950;11.014;2023-02-28T06:27:22;10.10;;;3.30;;
62863;SDS011;48954;59.950;11.014;2023-02-28T06:30:04;8.30;;;4.50;;
62863;SDS011;48954;59.950;11.014;2023-02-28T06:33:26;10.30;;;3.50;;
62863;SDS011;48954;59.950;11.014;2023-02-28T06:36:49;12.50;;;4.90;;
62863;SDS011;48954;59.950;11.014;2023-02-28T06:40:06;7.70;;;4.00;;
62863;SDS011;48954;59.950;11.014;2023-02-28T06:43:16;11.10;;;4.60;;
62863;SDS011;48954;59.950;11.014;2023-02-28T06:46:29;4.60;;;2.40;;
62863;SDS011;48954;59.950;11.014;2023-02-28T06:49:31;5.70;;;2.60;;
62863;SDS011;48954;59.950;11.014;2023-02-28T06:52:58;7.00;;;4.10;;
62863;SDS011;48954;59.950;11.014;2023-02-28T06:56:20;4.90;;;1.70;;
62863;SDS011;48954;59.950;11.014;2023-02-28T07:03:04;4.30;;;1.90;;
62863;SDS011;48954;59.950;11.014;2023-02-28T07:06:30;5.30;;;2.50;;
62863;SDS011;48954;59.950;11.014;2023-02-28T07:09:55;3.90;;;2.20;;
62863;SDS011;48954;59.950;11.014;2023-02-28T07:13:05;4.40;;;2.10;;
62863;SDS011;48954;59.950;11.014;2023-02-28T07:16:42;4.90;;;2.60;;
62863;SDS011;48954;59.950;11.014;2023-02-28T07:20:09;3.90;;;1.80;;
62863;SDS011;48954;59.950;11.014;2023-02-28T07:23:40;3.50;;;1.60;;
62863;SDS011;48954;59.950;11.014;2023-02-28T07:27:02;3.50;;;1.50;;
62863;SDS011;48954;59.950;11.014;2023-02-28T07:29:43;5.20;;;2.00;;
62863;SDS011;48954;59.950;11.014;2023-02-28T07:32:24;3.40;;;1.70;;
62863;SDS011;48954;59.950;11.014;2023-02-28T07:35:07;5.20;;;2.10;;
62863;SDS011;48954;59.950;11.014;2023-02-28T07:37:54;1.60;;;0.90;;
62863;SDS011;48954;59.950;11.014;2023-02-28T07:40:34;3.10;;;1.60;;
62863;SDS011;48954;59.950;11.014;2023-02-28T07:43:24;3.10;;;1.60;;
62863;SDS011;48954;59.950;11.014;2023-02-28T07:46:08;2.80;;;1.30;;
62863;SDS011;48954;59.950;11.014;2023-02-28T07:49:10;3.80;;;1.20;;
62863;SDS011;48954;59.950;11.014;2023-02-28T07:51:51;2.10;;;1.20;;
62863;SDS011;48954;59.950;11.014;2023-02-28T07:54:33;2.60;;;1.10;;
62863;SDS011;48954;59.950;11.014;2023-02-28T07:57:34;2.70;;;1.10;;
62863;SDS011;48954;59.950;11.014;2023-02-28T08:00:16;4.70;;;2.00;;
62863;SDS011;48954;59.950;11.014;2023-02-28T08:02:57;1.80;;;0.90;;
62863;SDS011;48954;59.950;11.014;2023-02-28T08:05:40;1.80;;;1.00;;
62863;SDS011;48954;59.950;11.014;2023-02-28T08:08:14;3.30;;;1.10;;
62863;SDS011;48954;59.950;11.014;2023-02-28T08:10:41;2.10;;;1.10;;
62863;SDS011;48954;59.950;11.014;2023-02-28T08:13:11;1.80;;;1.00;;
62863;SDS011;48954;59.950;11.014;2023-02-28T08:15:40;1.60;;;0.70;;
62863;SDS011;48954;59.950;11.014;2023-02-28T08:18:10;3.40;;;1.60;;
62863;SDS011;48954;59.950;11.014;2023-02-28T08:20:41;3.90;;;1.70;;
62863;SDS011;48954;59.950;11.014;2023-02-28T08:23:18;4.30;;;2.00;;
62863;SDS011;48954;59.950;11.014;2023-02-28T08:25:44;5.60;;;2.00;;
62863;SDS011;48954;59.950;11.014;2023-02-28T08:28:14;4.20;;;2.10;;
62863;SDS011;48954;59.950;11.014;2023-02-28T08:30:41;7.20;;;2.80;;
62863;SDS011;48954;59.950;11.014;2023-02-28T08:33:07;4.90;;;2.70;;
62863;SDS011;48954;59.950;11.014;2023-02-28T08:35:35;6.20;;;2.60;;
62863;SDS011;48954;59.950;11.014;2023-02-28T08:38:12;6.90;;;3.20;;
62863;SDS011;48954;59.950;11.014;2023-02-28T08:40:38;6.90;;;3.30;;
62863;SDS011;48954;59.950;11.014;2023-02-28T08:43:04;7.80;;;3.40;;
62863;SDS011;48954;59.950;11.014;2023-02-28T08:45:32;7.00;;;3.10;;
62863;SDS011;48954;59.950;11.014;2023-02-28T08:47:59;5.20;;;3.40;;
62863;SDS011;48954;59.950;11.014;2023-02-28T08:50:26;6.40;;;3.50;;
62863;SDS011;48954;59.950;11.014;2023-02-28T08:52:54;6.20;;;3.10;;
62863;SDS011;48954;59.950;11.014;2023-02-28T08:55:26;5.30;;;2.90;;
62863;SDS011;48954;59.950;11.014;2023-02-28T08:57:54;5.80;;;3.30;;
62863;SDS011;48954;59.950;11.014;2023-02-28T09:00:23;5.80;;;4.00;;
62863;SDS011;48954;59.950;11.014;2023-02-28T09:02:49;4.90;;;3.10;;
62863;SDS011;48954;59.950;11.014;2023-02-28T09:05:17;7.90;;;3.80;;
62863;SDS011;48954;59.950;11.014;2023-02-28T09:07:58;6.80;;;3.50;;
62863;SDS011;48954;59.950;11.014;2023-02-28T09:10:35;7.70;;;4.00;;
62863;SDS011;48954;59.950;11.014;2023-02-28T09:13:16;7.40;;;3.20;;
62863;SDS011;48954;59.950;11.014;2023-02-28T09:15:57;9.70;;;4.30;;
62863;SDS011;48954;59.950;11.014;2023-02-28T09:18:38;12.30;;;4.80;;
62863;SDS011;48954;59.950;11.014;2023-02-28T09:21:06;7.60;;;3.80;;
62863;SDS011;48954;59.950;11.014;2023-02-28T09:23:45;6.70;;;3.70;;
62863;SDS011;48954;59.950;11.014;2023-02-28T09:26:15;6.00;;;2.70;;
62863;SDS011;48954;59.950;11.014;2023-02-28T09:28:56;5.40;;;2.90;;
62863;SDS011;48954;59.950;11.014;2023-02-28T09:31:25;8.60;;;3.60;;
62863;SDS011;48954;59.950;11.014;2023-02-28T09:34:16;6.50;;;2.90;;
62863;SDS011;48954;59.950;11.014;2023-02-28T09:36:56;6.30;;;2.70;;
62863;SDS011;48954;59.950;11.014;2023-02-28T09:39:23;6.30;;;3.30;;
62863;SDS011;48954;59.950;11.014;2023-02-28T09:42:00;7.20;;;3.40;;
62863;SDS011;48954;59.950;11.014;2023-02-28T09:44:37;7.30;;;3.40;;
62863;SDS011;48954;59.950;11.014;2023-02-28T09:49:58;7.80;;;2.40;;
62863;SDS011;48954;59.950;11.014;2023-02-28T09:52:39;7.00;;;2.40;;
62863;SDS011;48954;59.950;11.014;2023-02-28T09:55:51;6.70;;;2.40;;
62863;SDS011;48954;59.950;11.014;2023-02-28T09:58:04;10.70;;;3.80;;
62863;SDS011;48954;59.950;11.014;2023-02-28T10:00:41;7.90;;;4.00;;
62863;SDS011;48954;59.950;11.014;2023-02-28T10:08:52;6.20;;;3.40;;
62863;SDS011;48954;59.950;11.014;2023-02-28T10:11:32;9.90;;;3.20;;
62863;SDS011;48954;59.950;11.014;2023-02-28T10:14:03;7.30;;;2.50;;
62863;SDS011;48954;59.950;11.014;2023-02-28T10:19:26;7.20;;;2.50;;
62863;SDS011;48954;59.950;11.014;2023-02-28T10:22:59;6.60;;;2.50;;
62863;SDS011;48954;59.950;11.014;2023-02-28T10:25:22;7.00;;;3.20;;
62863;SDS011;48954;59.950;11.014;2023-02-28T10:30:45;5.60;;;2.70;;
62863;SDS011;48954;59.950;11.014;2023-02-28T10:33:16;5.70;;;2.90;;
62863;SDS011;48954;59.950;11.014;2023-02-28T10:35:45;5.30;;;2.80;;
62863;SDS011;48954;59.950;11.014;2023-02-28T10:38:16;8.80;;;3.80;;
62863;SDS011;48954;59.950;11.014;2023-02-28T10:41:06;8.40;;;4.50;;
62863;SDS011;48954;59.950;11.014;2023-02-28T10:43:37;8.60;;;3.90;;
62863;SDS011;48954;59.950;11.014;2023-02-28T10:48:37;7.30;;;3.40;;
62863;SDS011;48954;59.950;11.014;2023-02-28T10:51:10;5.90;;;3.10;;
62863;SDS011;48954;59.950;11.014;2023-02-28T10:56:15;6.10;;;3.50;;
62863;SDS011;48954;59.950;11.014;2023-02-28T11:01:41;9.30;;;3.60;;
62863;SDS011;48954;59.950;11.014;2023-02-28T11:06:48;7.40;;;2.60;;
62863;SDS011;48954;59.950;11.014;2023-02-28T11:09:31;8.00;;;2.40;;
62863;SDS011;48954;59.950;11.014;2023-02-28T11:12:00;6.10;;;2.70;;
62863;SDS011;48954;59.950;11.014;2023-02-28T11:14:35;4.50;;;2.50;;
62863;SDS011;48954;59.950;11.014;2023-02-28T11:17:22;4.70;;;2.60;;
62863;SDS011;48954;59.950;11.014;2023-02-28T11:20:03;4.10;;;2.00;;
62863;SDS011;48954;59.950;11.014;2023-02-28T11:22:35;3.90;;;2.50;;
62863;SDS011;48954;59.950;11.014;2023-02-28T11:25:09;5.50;;;2.20;;
62863;SDS011;48954;59.950;11.014;2023-02-28T11:27:53;3.30;;;2.00;;
62863;SDS011;48954;59.950;11.014;2023-02-28T11:32:55;3.00;;;1.10;;
62863;SDS011;48954;59.950;11.014;2023-02-28T11:35:38;4.80;;;1.30;;
62863;SDS011;48954;59.950;11.014;2023-02-28T11:38:09;4.50;;;1.60;;
62863;SDS011;48954;59.950;11.014;2023-02-28T11:46:07;4.50;;;1.30;;
62863;SDS011;48954;59.950;11.014;2023-02-28T11:51:53;2.10;;;0.70;;
62863;SDS011;48954;59.950;11.014;2023-02-28T11:55:00;1.90;;;0.90;;
62863;SDS011;48954;59.950;11.014;2023-02-28T11:57:49;3.90;;;1.20;;
62863;SDS011;48954;59.950;11.014;2023-02-28T12:00:27;2.50;;;1.20;;
62863;SDS011;48954;59.950;11.014;2023-02-28T12:10:04;7.20;;;1.90;;
62863;SDS011;48954;59.950;11.014;2023-02-28T12:15:47;6.10;;;2.80;;
62863;SDS011;48954;59.950;11.014;2023-02-28T12:18:22;2.80;;;1.50;;
62863;SDS011;48954;59.950;11.014;2023-02-28T12:27:17;6.40;;;1.40;;
62863;SDS011;48954;59.950;11.014;2023-02-28T12:29:52;4.00;;;1.60;;
62863;SDS011;48954;59.950;11.014;2023-02-28T12:32:45;2.60;;;1.30;;
62863;SDS011;48954;59.950;11.014;2023-02-28T12:35:35;2.10;;;1.00;;
62863;SDS011;48954;59.950;11.014;2023-02-28T12:41:17;4.30;;;1.10;;
62863;SDS011;48954;59.950;11.014;2023-02-28T12:44:03;2.30;;;1.10;;
62863;SDS011;48954;59.950;11.014;2023-02-28T12:47:16;3.50;;;1.10;;
62863;SDS011;48954;59.950;11.014;2023-02-28T12:50:08;3.50;;;1.00;;
62863;SDS011;48954;59.950;11.014;2023-02-28T12:53:06;2.20;;;0.90;;
62863;SDS011;48954;59.950;11.014;2023-02-28T12:58:54;1.90;;;0.90;;
62863;SDS011;48954;59.950;11.014;2023-02-28T13:01:55;1.90;;;0.80;;
62863;SDS011;48954;59.950;11.014;2023-02-28T13:07:55;1.50;;;0.70;;
62863;SDS011;48954;59.950;11.014;2023-02-28T13:11:22;2.00;;;0.60;;
62863;SDS011;48954;59.950;11.014;2023-02-28T13:14:35;3.70;;;0.80;;
62863;SDS011;48954;59.950;11.014;2023-02-28T13:17:20;3.30;;;1.50;;
62863;SDS011;48954;59.950;11.014;2023-02-28T13:20:14;4.00;;;1.20;;
62863;SDS011;48954;59.950;11.014;2023-02-28T13:23:02;4.00;;;1.00;;
62863;SDS011;48954;59.950;11.014;2023-02-28T13:25:52;2.90;;;1.00;;
62863;SDS011;48954;59.950;11.014;2023-02-28T13:37:35;2.90;;;1.10;;
62863;SDS011;48954;59.950;11.014;2023-02-28T13:40:54;2.40;;;1.10;;
62863;SDS011;48954;59.950;11.014;2023-02-28T13:49:41;3.00;;;1.10;;
62863;SDS011;48954;59.950;11.014;2023-02-28T13:56:30;5.90;;;1.20;;
62863;SDS011;48954;59.950;11.014;2023-02-28T13:59:26;2.70;;;0.80;;
62863;SDS011;48954;59.950;11.014;2023-02-28T14:09:23;5.20;;;1.00;;
62863;SDS011;48954;59.950;11.014;2023-02-28T14:15:47;3.20;;;1.60;;
62863;SDS011;48954;59.950;11.014;2023-02-28T14:19:01;2.20;;;1.10;;
62863;SDS011;48954;59.950;11.014;2023-02-28T14:35:18;4.80;;;2.10;;
62863;SDS011;48954;59.950;11.014;2023-02-28T14:41:54;2.50;;;1.40;;
62863;SDS011;48954;59.950;11.014;2023-02-28T14:44:38;3.60;;;1.60;;
62863;SDS011;48954;59.950;11.014;2023-02-28T14:47:31;2.70;;;1.50;;
62863;SDS011;48954;59.950;11.014;2023-02-28T14:50:57;3.80;;;1.30;;
62863;SDS011;48954;59.950;11.014;2023-02-28T14:56:55;5.30;;;2.90;;
62863;SDS011;48954;59.950;11.014;2023-02-28T15:00:31;6.50;;;2.90;;
62863;SDS011;48954;59.950;11.014;2023-02-28T15:03:30;4.30;;;2.10;;
62863;SDS011;48954;59.950;11.014;2023-02-28T15:06:22;3.90;;;1.50;;
62863;SDS011;48954;59.950;11.014;2023-02-28T15:09:42;4.70;;;1.60;;
62863;SDS011;48954;59.950;11.014;2023-02-28T16:36:17;2.60;;;0.90;;
62863;SDS011;48954;59.950;11.014;2023-02-28T16:38:59;3.40;;;1.50;;
62863;SDS011;48954;59.950;11.014;2023-02-28T16:42:02;26.70;;;13.00;;
62863;SDS011;48954;59.950;11.014;2023-02-28T16:44:44;17.00;;;6.40;;
62863;SDS011;48954;59.950;11.014;2023-02-28T16:48:08;13.20;;;5.90;;
62863;SDS011;48954;59.950;11.014;2023-02-28T21:13:34;25.20;;;9.00;;
62863;SDS011;48954;59.950;11.014;2023-02-28T21:16:04;20.70;;;8.80;;
62863;SDS011;48954;59.950;11.014;2023-02-28T21:18:53;21.20;;;7.60;;
62863;SDS011;48954;59.950;11.014;2023-02-28T21:21:26;19.10;;;7.30;;
62863;SDS011;48954;59.950;11.014;2023-02-28T21:27:10;19.90;;;7.70;;
62863;SDS011;48954;59.950;11.014;2023-02-28T21:29:53;22.80;;;8.10;;
62863;SDS011;48954;59.950;11.014;2023-02-28T21:32:34;22.30;;;7.00;;
62863;SDS011;48954;59.950;11.014;2023-02-28T21:35:18;19.80;;;7.10;;
62863;SDS011;48954;59.950;11.014;2023-02-28T21:38:00;24.50;;;9.20;;
62863;SDS011;48954;59.950;11.014;2023-02-28T21:40:40;23.50;;;8.10;;
62863;SDS011;48954;59.950;11.014;2023-02-28T21:43:27;24.10;;;8.90;;
62863;SDS011;48954;59.950;11.014;2023-02-28T21:46:11;19.70;;;7.10;;
62863;SDS011;48954;59.950;11.014;2023-02-28T21:49:11;18.70;;;7.60;;
62863;SDS011;48954;59.950;11.014;2023-02-28T21:52:16;18.30;;;7.70;;
62863;SDS011;48954;59.950;11.014;2023-02-28T21:54:59;16.60;;;6.60;;
62863;SDS011;48954;59.950;11.014;2023-02-28T21:58:04;13.80;;;5.30;;
62863;SDS011;48954;59.950;11.014;2023-02-28T22:01:05;15.50;;;5.60;;
62863;SDS011;48954;59.950;11.014;2023-02-28T22:03:48;13.70;;;5.90;;
62863;SDS011;48954;59.950;11.014;2023-02-28T22:06:34;11.80;;;4.20;;
62863;SDS011;48954;59.950;11.014;2023-02-28T22:09:19;10.40;;;5.30;;
62863;SDS011;48954;59.950;11.014;2023-02-28T22:15:03;12.80;;;4.50;;
62863;SDS011;48954;59.950;11.014;2023-02-28T22:17:46;7.10;;;3.70;;
62863;SDS011;48954;59.950;11.014;2023-02-28T22:20:32;10.80;;;4.70;;
62863;SDS011;48954;59.950;11.014;2023-02-28T22:23:13;7.80;;;3.00;;
62863;SDS011;48954;59.950;11.014;2023-02-28T22:26:05;11.40;;;5.10;;
62863;SDS011;48954;59.950;11.014;2023-02-28T22:29:09;12.30;;;5.30;;
62863;SDS011;48954;59.950;11.014;2023-02-28T22:31:57;8.10;;;3.80;;
62863;SDS011;48954;59.950;11.014;2023-02-28T22:34:39;5.30;;;2.50;;
62863;SDS011;48954;59.950;11.014;2023-02-28T22:37:20;10.70;;;4.50;;
62863;SDS011;48954;59.950;11.014;2023-02-28T22:40:02;8.30;;;4.20;;
62863;SDS011;48954;59.950;11.014;2023-02-28T22:42:33;7.30;;;3.90;;
62863;SDS011;48954;59.950;11.014;2023-02-28T22:45:14;6.10;;;2.80;;
62863;SDS011;48954;59.950;11.014;2023-02-28T22:48:06;6.60;;;3.40;;
62863;SDS011;48954;59.950;11.014;2023-02-28T22:50:47;10.50;;;4.00;;
62863;SDS011;48954;59.950;11.014;2023-02-28T22:53:29;12.30;;;4.90;;
62863;SDS011;48954;59.950;11.014;2023-02-28T22:56:11;14.50;;;5.10;;
62863;SDS011;48954;59.950;11.014;2023-02-28T22:58:55;17.50;;;5.80;;
62863;SDS011;48954;59.950;11.014;2023-02-28T23:01:40;12.30;;;4.90;;
62863;SDS011;48954;59.950;11.014;2023-02-28T23:04:22;13.20;;;5.10;;
62863;SDS011;48954;59.950;11.014;2023-02-28T23:07:03;5.90;;;2.30;;
62863;SDS011;48954;59.950;11.014;2023-02-28T23:09:43;5.60;;;2.50;;
62863;SDS011;48954;59.950;11.014;2023-02-28T23:12:24;5.20;;;1.80;;
62863;SDS011;48954;59.950;11.014;2023-02-28T23:14:55;5.30;;;1.70;;
62863;SDS011;48954;59.950;11.014;2023-02-28T23:17:38;4.20;;;1.80;;
62863;SDS011;48954;59.950;11.014;2023-02-28T23:20:19;5.30;;;1.70;;
62863;SDS011;48954;59.950;11.014;2023-02-28T23:23:00;3.80;;;1.40;;
62863;SDS011;48954;59.950;11.014;2023-02-28T23:25:41;3.80;;;1.50;;
62863;SDS011;48954;59.950;11.014;2023-02-28T23:28:24;2.50;;;1.20;;
62863;SDS011;48954;59.950;11.014;2023-02-28T23:30:51;3.50;;;1.70;;
62863;SDS011;48954;59.950;11.014;2023-02-28T23:33:35;2.30;;;1.20;;
62863;SDS011;48954;59.950;11.014;2023-02-28T23:36:16;3.00;;;1.30;;
62863;SDS011;48954;59.950;11.014;2023-02-28T23:38:50;3.80;;;1.10;;
62863;SDS011;48954;59.950;11.014;2023-02-28T23:41:35;3.90;;;1.50;;
62863;SDS011;48954;59.950;11.014;2023-02-28T23:44:11;5.50;;;1.70;;
62863;SDS011;48954;59.950;11.014;2023-02-28T23:46:43;3.70;;;1.30;;
62863;SDS011;48954;59.950;11.014;2023-02-28T23:49:11;4.40;;;1.80;;
62863;SDS011;48954;59.950;11.014;2023-02-28T23:51:40;4.20;;;1.60;;
62863;SDS011;48954;59.950;11.014;2023-02-28T23:54:22;3.60;;;1.50;;
62863;SDS011;48954;59.950;11.014;2023-02-28T23:56:50;5.70;;;1.80;;
62863;SDS011;48954;59.950;11.014;2023-02-28T23:59:24;4.50;;;2.00;;
